createdAt,value
2022-12-11T00:01:59.583Z,0.87
2022-12-11T00:04:27.391Z,0.70
2022-12-11T00:06:56.443Z,0.73
2022-12-11T00:09:24.502Z,0.83
2022-12-11T00:11:52.219Z,2.70
2022-12-11T00:14:19.997Z,0.97
2022-12-11T00:16:49.381Z,1.03
2022-12-11T00:19:17.414Z,0.87
2022-12-11T00:21:45.665Z,0.50
2022-12-11T00:24:14.749Z,1.10
2022-12-11T00:26:42.454Z,1.27
2022-12-11T00:29:14.388Z,0.77
2022-12-11T00:31:42.709Z,1.67
2022-12-11T00:34:11.904Z,0.87
2022-12-11T00:36:40.001Z,0.93
2022-12-11T00:39:07.893Z,0.50
2022-12-11T00:41:37.048Z,1.53
2022-12-11T00:44:05.119Z,2.50
2022-12-11T00:46:32.891Z,0.97
2022-12-11T00:49:00.598Z,0.60
2022-12-11T00:51:28.380Z,0.73
2022-12-11T00:53:56.677Z,1.00
2022-12-11T00:56:25.202Z,0.50
2022-12-11T00:58:54.281Z,1.13
2022-12-11T01:01:23.903Z,1.00
2022-12-11T01:03:53.442Z,0.60
2022-12-11T01:06:22.915Z,0.97
2022-12-11T01:09:12.168Z,0.60
2022-12-11T01:11:40.197Z,1.13
2022-12-11T01:14:10.636Z,1.00
2022-12-11T01:16:38.469Z,1.43
2022-12-11T01:19:06.229Z,0.77
2022-12-11T01:21:34.000Z,1.00
2022-12-11T01:24:01.763Z,0.77
2022-12-11T01:26:30.569Z,0.67
2022-12-11T01:28:58.390Z,0.60
2022-12-11T01:31:27.460Z,1.37
2022-12-11T01:33:55.597Z,0.60
2022-12-11T01:36:24.245Z,1.10
2022-12-11T01:38:54.228Z,0.80
2022-12-11T01:41:22.789Z,1.10
2022-12-11T01:44:02.000Z,0.50
2022-12-11T01:46:32.392Z,0.60
2022-12-11T01:49:01.803Z,0.73
2022-12-11T01:51:31.885Z,0.73
2022-12-11T01:54:04.443Z,1.27
2022-12-11T01:56:34.894Z,0.40
2022-12-11T01:59:07.231Z,1.00
2022-12-11T02:01:40.551Z,0.83
2022-12-11T02:04:10.232Z,0.70
2022-12-11T02:06:40.271Z,0.60
2022-12-11T02:09:10.528Z,0.70
2022-12-11T02:11:48.368Z,0.87
2022-12-11T02:14:25.103Z,1.90
2022-12-11T02:17:00.008Z,1.77
2022-12-11T02:19:52.467Z,1.33
2022-12-11T02:22:28.968Z,0.60
2022-12-11T02:25:09.427Z,1.00
2022-12-11T02:27:42.718Z,0.60
2022-12-11T02:30:14.370Z,0.60
2022-12-11T02:32:48.648Z,0.93
2022-12-11T02:35:19.725Z,0.90
2022-12-11T02:37:50.385Z,1.07
2022-12-11T02:40:22.485Z,1.50
2022-12-11T02:42:52.567Z,0.80
2022-12-11T02:45:24.354Z,0.60
2022-12-11T02:47:53.661Z,0.70
2022-12-11T02:50:23.342Z,0.70
2022-12-11T02:52:55.725Z,1.23
2022-12-11T02:55:25.698Z,0.73
2022-12-11T02:58:00.897Z,0.50
2022-12-11T03:00:30.229Z,0.90
2022-12-11T03:02:58.202Z,1.10
2022-12-11T03:05:27.055Z,0.50
2022-12-11T03:07:54.878Z,0.60
2022-12-11T03:10:23.011Z,1.00
2022-12-11T03:12:54.121Z,0.70
2022-12-11T03:15:30.156Z,0.83
2022-12-11T03:18:06.727Z,0.50
2022-12-11T03:20:39.687Z,0.80
2022-12-11T03:23:18.431Z,0.70
2022-12-11T03:25:54.466Z,1.33
2022-12-11T03:28:28.267Z,1.07
2022-12-11T03:30:58.455Z,0.90
2022-12-11T03:33:33.736Z,0.90
2022-12-11T03:36:06.923Z,0.93
2022-12-11T03:38:40.537Z,0.60
2022-12-11T03:41:09.921Z,0.43
2022-12-11T03:43:39.387Z,0.80
2022-12-11T03:46:10.095Z,0.50
2022-12-11T03:48:42.653Z,1.93
2022-12-11T03:51:10.559Z,0.73
2022-12-11T03:53:39.676Z,1.43
2022-12-11T03:56:09.420Z,0.50
2022-12-11T03:58:37.598Z,1.70
2022-12-11T04:01:09.157Z,0.60
2022-12-11T04:03:36.964Z,0.90
2022-12-11T04:06:06.355Z,0.50
2022-12-11T04:08:34.089Z,0.47
2022-12-11T04:11:22.235Z,0.70
2022-12-11T04:14:10.661Z,0.70
2022-12-11T04:16:37.472Z,0.80
2022-12-11T04:19:23.170Z,0.70
2022-12-11T04:22:09.956Z,0.60
2022-12-11T04:24:37.679Z,0.90
2022-12-11T04:27:05.518Z,1.00
2022-12-11T04:29:33.269Z,0.53
2022-12-11T04:32:00.980Z,0.70
2022-12-11T04:34:28.775Z,0.77
2022-12-11T04:36:57.872Z,1.00
2022-12-11T04:39:25.591Z,0.90
2022-12-11T04:41:53.299Z,0.47
2022-12-11T04:44:21.019Z,0.60
2022-12-11T04:46:48.827Z,0.50
2022-12-11T04:49:16.553Z,0.53
2022-12-11T04:51:44.281Z,0.80
2022-12-11T04:54:13.362Z,0.70
2022-12-11T04:56:41.077Z,1.03
2022-12-11T04:59:08.803Z,0.50
2022-12-11T05:01:36.631Z,1.60
2022-12-11T05:04:04.480Z,0.60
2022-12-11T05:06:32.215Z,0.83
2022-12-11T05:08:59.939Z,0.80
2022-12-11T05:11:29.055Z,0.90
2022-12-11T05:13:56.944Z,0.40
2022-12-11T05:16:24.725Z,1.23
2022-12-11T05:18:52.504Z,1.23
2022-12-11T05:21:20.260Z,0.50
2022-12-11T05:23:47.976Z,0.90
2022-12-11T05:26:19.099Z,0.47
2022-12-11T05:28:51.576Z,0.70
2022-12-11T05:31:21.530Z,0.83
2022-12-11T05:33:50.755Z,0.80
2022-12-11T05:36:20.680Z,0.83
2022-12-11T05:38:48.906Z,0.57
2022-12-11T05:41:19.211Z,0.63
2022-12-11T05:43:48.845Z,0.60
2022-12-11T05:46:18.768Z,0.67
2022-12-11T05:48:49.056Z,0.63
2022-12-11T05:51:18.271Z,0.73
2022-12-11T05:53:48.004Z,1.13
2022-12-11T05:56:18.019Z,0.80
2022-12-11T05:58:46.564Z,0.80
2022-12-11T06:01:18.139Z,1.07
2022-12-11T06:03:46.276Z,0.73
2022-12-11T06:06:14.301Z,0.80
2022-12-11T06:08:42.133Z,1.70
2022-12-11T06:11:10.158Z,0.80
2022-12-11T06:13:37.899Z,0.87
2022-12-11T06:16:08.125Z,1.00
2022-12-11T06:18:39.583Z,1.03
2022-12-11T06:21:15.726Z,1.33
2022-12-11T06:23:44.829Z,1.10
2022-12-11T06:26:13.527Z,2.03
2022-12-11T06:28:41.371Z,0.70
2022-12-11T06:31:09.406Z,1.27
2022-12-11T06:33:38.851Z,0.53
2022-12-11T06:36:09.402Z,1.50
2022-12-11T06:38:37.580Z,1.00
2022-12-11T06:41:09.032Z,0.80
2022-12-11T06:43:40.013Z,0.70
2022-12-11T06:46:08.768Z,2.20
2022-12-11T06:48:38.334Z,0.70
2022-12-11T06:51:08.076Z,1.00
2022-12-11T06:53:36.375Z,0.93
2022-12-11T06:56:05.343Z,1.00
2022-12-11T06:58:34.650Z,0.90
2022-12-11T07:01:02.966Z,1.43
2022-12-11T07:03:30.805Z,0.97
2022-12-11T07:06:02.673Z,1.73
2022-12-11T07:08:31.862Z,1.50
2022-12-11T07:11:04.457Z,0.90
2022-12-11T07:13:32.160Z,0.73
2022-12-11T07:16:00.223Z,1.03
2022-12-11T07:18:28.004Z,2.03
2022-12-11T07:20:55.772Z,0.70
2022-12-11T07:23:25.062Z,1.70
2022-12-11T07:25:53.595Z,1.53
2022-12-11T07:28:21.519Z,0.80
2022-12-11T07:30:49.377Z,1.67
2022-12-11T07:33:17.116Z,1.00
2022-12-11T07:35:46.064Z,0.87
2022-12-11T07:38:13.774Z,2.27
2022-12-11T07:40:42.860Z,1.20
2022-12-11T07:43:10.577Z,1.63
2022-12-11T07:45:38.364Z,1.60
2022-12-11T07:48:06.790Z,1.33
2022-12-11T07:50:39.580Z,0.60
2022-12-11T07:53:07.728Z,1.10
2022-12-11T07:55:35.463Z,0.80
2022-12-11T07:58:04.629Z,0.70
2022-12-11T08:00:32.388Z,2.13
2022-12-11T08:03:00.126Z,3.27
2022-12-11T08:05:27.844Z,1.47
2022-12-11T08:07:55.596Z,1.93
2022-12-11T08:10:23.386Z,3.00
2022-12-11T08:12:51.129Z,1.73
2022-12-11T08:15:20.219Z,1.60
2022-12-11T08:17:47.928Z,1.87
2022-12-11T08:20:15.840Z,5.33
2022-12-11T08:22:43.555Z,3.27
2022-12-11T08:25:11.815Z,2.90
2022-12-11T08:27:39.717Z,2.70
2022-12-11T08:30:08.620Z,3.50
2022-12-11T08:32:37.970Z,4.93
2022-12-11T08:35:06.361Z,4.50
2022-12-11T08:37:35.088Z,4.83
2022-12-11T08:40:02.896Z,5.63
2022-12-11T08:42:30.613Z,2.90
2022-12-11T08:44:58.367Z,3.70
2022-12-11T08:47:26.320Z,9.63
2022-12-11T08:49:55.400Z,7.80
2022-12-11T08:52:23.102Z,7.30
2022-12-11T08:54:50.856Z,7.90
2022-12-11T08:57:18.624Z,5.70
2022-12-11T08:59:46.381Z,4.50
2022-12-11T09:02:14.301Z,11.33
2022-12-11T09:04:42.517Z,7.20
2022-12-11T09:07:11.797Z,6.77
2022-12-11T09:09:39.643Z,8.60
2022-12-11T09:12:07.576Z,5.07
2022-12-11T09:14:35.376Z,4.43
2022-12-11T09:17:05.303Z,6.97
2022-12-11T09:19:33.029Z,4.30
2022-12-11T09:22:01.644Z,6.00
2022-12-11T09:24:30.746Z,8.73
2022-12-11T09:26:58.461Z,8.30
2022-12-11T09:29:26.228Z,4.57
2022-12-11T09:31:54.030Z,6.70
2022-12-11T09:34:28.706Z,6.00
2022-12-11T09:36:57.299Z,7.60
2022-12-11T09:39:25.143Z,6.27
2022-12-11T09:42:01.041Z,5.50
2022-12-11T09:44:39.001Z,6.37
2022-12-11T09:47:21.105Z,5.93
2022-12-11T09:49:52.118Z,4.80
2022-12-11T09:52:23.480Z,3.50
2022-12-11T09:54:54.039Z,2.67
2022-12-11T09:57:34.511Z,3.97
2022-12-11T10:00:19.905Z,6.90
2022-12-11T10:03:28.370Z,4.03
2022-12-11T10:06:05.022Z,5.70
2022-12-11T10:08:43.971Z,4.17
2022-12-11T10:11:36.071Z,5.80
2022-12-11T10:14:14.684Z,4.50
2022-12-11T10:16:45.968Z,7.77
2022-12-11T10:19:18.883Z,3.40
2022-12-11T10:21:47.561Z,5.93
2022-12-11T10:24:50.135Z,4.10
2022-12-11T10:27:19.136Z,3.90
2022-12-11T10:29:49.842Z,2.60
2022-12-11T10:32:24.800Z,4.60
2022-12-11T10:34:58.144Z,3.70
2022-12-11T10:37:25.922Z,4.17
2022-12-11T10:39:53.803Z,3.87
2022-12-11T10:42:23.670Z,3.40
2022-12-11T10:45:01.374Z,3.00
2022-12-11T10:47:29.907Z,3.03
2022-12-11T10:49:59.946Z,2.80
2022-12-11T10:52:31.516Z,5.30
2022-12-11T10:55:02.621Z,2.97
2022-12-11T10:57:33.239Z,4.20
2022-12-11T11:00:05.025Z,1.83
2022-12-11T11:02:36.419Z,2.20
2022-12-11T11:05:13.736Z,2.53
2022-12-11T11:07:41.986Z,4.13
2022-12-11T11:10:17.675Z,1.80
2022-12-11T11:12:47.453Z,2.87
2022-12-11T11:15:19.816Z,5.43
2022-12-11T11:17:55.118Z,2.30
2022-12-11T11:20:25.835Z,1.83
2022-12-11T11:22:55.759Z,4.60
2022-12-11T11:25:25.471Z,3.40
2022-12-11T11:27:55.463Z,2.17
2022-12-11T11:30:26.868Z,2.83
2022-12-11T11:32:57.620Z,3.20
2022-12-11T11:35:27.510Z,1.93
2022-12-11T11:38:03.188Z,1.03
2022-12-11T11:40:34.387Z,2.73
2022-12-11T11:43:16.511Z,3.37
2022-12-11T11:45:52.454Z,3.03
2022-12-11T11:48:34.976Z,1.80
2022-12-11T11:51:12.913Z,2.10
2022-12-11T11:53:41.618Z,3.47
2022-12-11T11:56:19.884Z,2.17
2022-12-11T11:58:59.159Z,0.90
2022-12-11T12:01:28.993Z,5.77
2022-12-11T12:03:57.795Z,3.00
2022-12-11T12:06:40.072Z,2.80
2022-12-11T12:09:21.742Z,1.23
2022-12-11T12:11:57.288Z,4.20
2022-12-11T12:17:27.857Z,2.00
2022-12-11T12:20:05.127Z,6.23
2022-12-11T12:22:48.431Z,7.30
2022-12-11T12:25:23.294Z,4.97
2022-12-11T12:27:57.892Z,3.60
2022-12-11T12:30:26.441Z,3.67
2022-12-11T12:33:11.655Z,3.57
2022-12-11T12:35:45.492Z,3.50
2022-12-11T12:38:20.650Z,3.40
2022-12-11T12:40:59.243Z,4.40
2022-12-11T12:43:39.374Z,4.50
2022-12-11T12:46:20.500Z,2.40
2022-12-11T12:48:51.112Z,4.87
2022-12-11T12:51:19.663Z,6.03
2022-12-11T12:53:54.104Z,2.60
2022-12-11T12:56:23.275Z,5.00
2022-12-11T12:58:51.015Z,5.30
2022-12-11T13:01:21.504Z,6.07
2022-12-11T13:03:56.700Z,4.90
2022-12-11T13:06:37.257Z,7.23
2022-12-11T13:09:18.343Z,4.87
2022-12-11T13:11:46.829Z,3.23
2022-12-11T13:14:28.667Z,3.70
2022-12-11T13:17:08.687Z,3.27
2022-12-11T13:19:42.241Z,6.77
2022-12-11T13:22:23.619Z,5.50
2022-12-11T13:25:01.454Z,4.97
2022-12-11T13:27:39.560Z,3.60
2022-12-11T13:30:21.587Z,5.07
2022-12-11T13:32:59.637Z,3.47
2022-12-11T13:35:29.181Z,2.53
2022-12-11T13:37:58.958Z,5.53
2022-12-11T13:40:29.460Z,3.90
2022-12-11T13:43:00.526Z,2.67
2022-12-11T13:45:30.560Z,3.10
2022-12-11T13:47:59.585Z,4.00
2022-12-11T13:50:31.335Z,1.63
2022-12-11T13:53:00.905Z,2.47
2022-12-11T13:55:31.477Z,6.83
2022-12-11T13:57:59.688Z,2.57
2022-12-11T14:00:30.039Z,2.70
2022-12-11T14:03:00.772Z,1.70
2022-12-11T14:05:30.456Z,3.70
2022-12-11T14:08:02.129Z,1.90
2022-12-11T14:10:32.904Z,4.87
2022-12-11T14:13:03.873Z,2.70
2022-12-11T14:15:33.844Z,2.60
2022-12-11T14:18:02.222Z,3.17
2022-12-11T14:20:33.754Z,2.47
2022-12-11T14:23:06.636Z,1.90
2022-12-11T14:25:34.593Z,2.33
2022-12-11T14:28:02.537Z,3.47
2022-12-11T14:30:33.367Z,2.00
2022-12-11T14:33:04.805Z,3.10
2022-12-11T14:35:39.152Z,2.83
2022-12-11T14:38:13.994Z,2.43
2022-12-11T14:40:44.787Z,2.30
2022-12-11T14:43:16.004Z,2.37
2022-12-11T14:45:49.503Z,3.03
2022-12-11T14:48:24.234Z,2.10
2022-12-11T14:50:57.951Z,3.90
2022-12-11T14:53:30.213Z,1.87
2022-12-11T14:56:02.242Z,2.93
2022-12-11T14:58:30.934Z,4.03
2022-12-11T15:01:01.050Z,2.43
2022-12-11T15:03:34.134Z,3.93
2022-12-11T15:06:04.570Z,3.00
2022-12-11T15:08:34.297Z,3.67
2022-12-11T15:11:07.712Z,2.13
2022-12-11T15:13:38.308Z,3.00
2022-12-11T15:16:08.524Z,3.80
2022-12-11T15:18:38.979Z,1.90
2022-12-11T15:21:10.485Z,2.20
2022-12-11T15:23:52.228Z,1.40
2022-12-11T15:26:21.117Z,2.30
2022-12-11T15:28:48.910Z,2.43
2022-12-11T15:31:26.773Z,2.43
2022-12-11T15:33:54.760Z,1.57
2022-12-11T15:36:27.007Z,3.17
2022-12-11T15:38:54.907Z,1.67
2022-12-11T15:41:24.504Z,3.40
2022-12-11T15:43:58.669Z,1.50
2022-12-11T15:46:27.034Z,2.13
2022-12-11T15:48:56.219Z,6.20
2022-12-11T15:51:27.289Z,4.90
2022-12-11T15:53:55.030Z,1.77
2022-12-11T15:56:22.785Z,2.70
2022-12-11T15:58:50.817Z,2.43
2022-12-11T16:01:18.651Z,3.03
2022-12-11T16:03:46.386Z,1.03
2022-12-11T16:06:14.607Z,2.17
2022-12-11T16:08:43.664Z,2.00
2022-12-11T16:11:13.948Z,2.63
2022-12-11T16:13:41.712Z,2.90
2022-12-11T16:16:09.514Z,2.30
2022-12-11T16:18:37.305Z,1.07
2022-12-11T16:21:06.201Z,2.03
2022-12-11T16:23:33.988Z,2.60
2022-12-11T16:26:07.086Z,3.27
2022-12-11T16:28:34.910Z,2.40
2022-12-11T16:31:02.868Z,1.57
2022-12-11T16:33:30.848Z,1.60
2022-12-11T16:35:59.164Z,1.60
2022-12-11T16:38:27.271Z,2.13
2022-12-11T16:41:01.396Z,1.57
2022-12-11T16:43:30.500Z,2.30
2022-12-11T16:45:58.321Z,1.20
2022-12-11T16:48:26.223Z,2.30
2022-12-11T16:50:54.340Z,2.83
2022-12-11T16:53:22.242Z,1.70
2022-12-11T16:55:50.548Z,1.70
2022-12-11T16:58:20.031Z,2.20
2022-12-11T17:00:49.977Z,2.23
2022-12-11T17:03:18.053Z,1.27
2022-12-11T17:05:45.977Z,1.50
2022-12-11T17:08:13.839Z,2.50
2022-12-11T17:10:42.885Z,1.47
2022-12-11T17:13:10.830Z,1.63
2022-12-11T17:15:42.164Z,1.90
2022-12-11T17:18:12.567Z,1.20
2022-12-11T17:20:41.891Z,1.87
2022-12-11T17:23:10.730Z,1.47
2022-12-11T17:25:41.083Z,2.40
2022-12-11T17:28:09.274Z,1.90
2022-12-11T17:30:40.925Z,2.00
2022-12-11T17:33:09.059Z,2.50
2022-12-11T17:35:38.802Z,2.63
2022-12-11T17:38:06.720Z,3.10
2022-12-11T17:40:34.678Z,2.17
2022-12-11T17:43:06.204Z,3.33
2022-12-11T17:45:33.944Z,3.63
2022-12-11T17:48:01.676Z,2.57
2022-12-11T17:50:29.350Z,1.80
2022-12-11T17:52:58.535Z,1.20
2022-12-11T17:55:26.293Z,1.63
2022-12-11T17:57:54.064Z,2.90
2022-12-11T18:00:21.845Z,2.37
2022-12-11T18:02:49.873Z,1.37
2022-12-11T18:05:17.737Z,1.27
2022-12-11T18:07:45.545Z,1.83
2022-12-11T18:10:14.629Z,2.33
2022-12-11T18:12:42.376Z,1.30
2022-12-11T18:15:11.233Z,2.20
2022-12-11T18:17:39.141Z,1.37
2022-12-11T18:20:07.516Z,2.47
2022-12-11T18:22:35.259Z,1.70
2022-12-11T18:25:09.337Z,1.87
2022-12-11T18:27:39.188Z,1.80
2022-12-11T18:30:07.895Z,2.60
2022-12-11T18:32:35.766Z,1.80
2022-12-11T18:35:04.492Z,2.20
2022-12-11T18:37:32.488Z,2.10
2022-12-11T18:40:01.995Z,1.83
2022-12-11T18:42:33.747Z,1.20
2022-12-11T18:45:03.483Z,2.00
2022-12-11T18:47:31.588Z,0.97
2022-12-11T18:50:05.601Z,2.53
2022-12-11T18:52:35.578Z,7.63
2022-12-11T18:55:04.786Z,2.43
2022-12-11T18:57:33.154Z,4.73
2022-12-11T19:00:07.003Z,4.33
2022-12-11T19:02:36.396Z,6.37
2022-12-11T19:05:04.601Z,6.93
2022-12-11T19:07:32.709Z,10.03
2022-12-11T19:10:00.468Z,6.33
2022-12-11T19:12:28.378Z,6.07
2022-12-11T19:14:56.099Z,6.90
2022-12-11T19:17:23.945Z,6.87
2022-12-11T19:19:53.098Z,4.73
2022-12-11T19:22:20.890Z,7.83
2022-12-11T19:24:48.609Z,4.37
2022-12-11T19:27:16.365Z,5.20
2022-12-11T19:29:44.210Z,7.50
2022-12-11T19:32:11.923Z,5.80
2022-12-11T19:34:39.723Z,6.30
2022-12-11T19:37:08.947Z,6.43
2022-12-11T19:39:39.691Z,8.07
2022-12-11T19:42:07.473Z,6.23
2022-12-11T19:44:35.545Z,8.80
2022-12-11T19:47:03.313Z,6.90
2022-12-11T19:49:31.161Z,4.60
2022-12-11T19:51:58.909Z,6.43
2022-12-11T19:54:28.371Z,5.40
2022-12-11T19:56:56.134Z,4.33
2022-12-11T19:59:23.858Z,5.10
2022-12-11T20:01:51.717Z,7.40
2022-12-11T20:04:19.889Z,2.83
2022-12-11T20:06:48.465Z,7.20
2022-12-11T20:09:16.771Z,3.37
2022-12-11T20:11:47.247Z,3.70
2022-12-11T20:14:20.832Z,3.37
2022-12-11T20:19:36.629Z,5.50
2022-12-11T20:22:04.524Z,4.33
2022-12-11T20:24:32.445Z,2.33
2022-12-11T20:27:01.487Z,3.23
2022-12-11T20:29:29.407Z,3.53
2022-12-11T20:31:59.409Z,4.40
2022-12-11T20:34:27.472Z,4.10
2022-12-11T20:36:56.175Z,4.00
2022-12-11T20:39:24.274Z,4.10
2022-12-11T20:41:52.011Z,4.80
2022-12-11T20:44:21.187Z,3.13
2022-12-11T20:46:49.192Z,5.87
2022-12-11T20:49:16.935Z,3.20
2022-12-11T20:51:44.843Z,2.20
2022-12-11T20:54:13.187Z,2.77
2022-12-11T20:56:40.987Z,3.87
2022-12-11T20:59:08.726Z,1.73
2022-12-11T21:01:37.803Z,2.50
2022-12-11T21:04:05.536Z,3.33
2022-12-11T21:06:35.264Z,2.80
2022-12-11T21:09:05.586Z,3.73
2022-12-11T21:11:33.410Z,3.50
2022-12-11T21:14:01.291Z,4.23
2022-12-11T21:16:29.331Z,2.90
2022-12-11T21:18:59.396Z,2.37
2022-12-11T21:21:27.707Z,4.93
2022-12-11T21:23:55.610Z,3.23
2022-12-11T21:26:23.629Z,3.33
2022-12-11T21:28:51.420Z,2.53
2022-12-11T21:31:20.583Z,2.90
2022-12-11T21:33:48.596Z,2.40
2022-12-11T21:36:18.158Z,3.17
2022-12-11T21:38:46.691Z,3.90
2022-12-11T21:41:16.803Z,3.00
2022-12-11T21:44:40.999Z,1.73
2022-12-11T21:46:34.446Z,4.90
2022-12-11T21:49:02.252Z,1.77
2022-12-11T21:51:37.690Z,3.17
2022-12-11T21:54:13.007Z,3.00
2022-12-11T21:56:40.831Z,4.23
2022-12-11T21:59:08.623Z,3.73
2022-12-11T22:01:40.676Z,1.30
2022-12-11T22:04:09.250Z,2.60
2022-12-11T22:06:40.090Z,3.73
2022-12-11T22:09:07.822Z,2.13
2022-12-11T22:11:36.653Z,2.40
2022-12-11T22:14:06.652Z,2.83
2022-12-11T22:16:35.035Z,1.90
2022-12-11T22:19:02.831Z,3.10
2022-12-11T22:21:30.565Z,1.50
2022-12-11T22:23:59.711Z,4.40
2022-12-11T22:26:28.655Z,1.93
2022-12-11T22:28:57.028Z,2.53
2022-12-11T22:31:27.366Z,2.80
2022-12-11T22:33:55.839Z,2.87
2022-12-11T22:36:25.072Z,1.33
2022-12-11T22:38:53.087Z,2.00
2022-12-11T22:41:25.679Z,2.63
2022-12-11T22:43:54.268Z,3.10
2022-12-11T22:46:23.839Z,1.80
2022-12-11T22:48:51.687Z,1.00
2022-12-11T22:51:20.508Z,1.90
2022-12-11T22:53:48.256Z,3.67
2022-12-11T22:56:16.039Z,1.20
2022-12-11T22:58:45.168Z,3.40
2022-12-11T23:01:16.094Z,2.07
2022-12-11T23:03:43.914Z,1.63
2022-12-11T23:06:13.713Z,3.30
2022-12-11T23:08:42.512Z,2.60
2022-12-11T23:11:14.652Z,2.83
2022-12-11T23:13:42.532Z,0.90
2022-12-11T23:16:12.023Z,1.83
2022-12-11T23:18:40.354Z,2.60
2022-12-11T23:21:09.010Z,1.47
2022-12-11T23:23:37.203Z,2.43
2022-12-11T23:26:05.827Z,1.30
2022-12-11T23:28:33.805Z,1.90
2022-12-11T23:31:01.768Z,2.50
2022-12-11T23:33:30.929Z,2.63
2022-12-11T23:35:58.831Z,4.80
2022-12-11T23:38:26.663Z,1.33
2022-12-11T23:40:55.765Z,2.90
2022-12-11T23:43:24.314Z,4.30
2022-12-11T23:45:52.112Z,3.50
2022-12-11T23:48:20.368Z,0.40
2022-12-11T23:50:49.460Z,2.17
2022-12-11T23:53:17.180Z,2.00
2022-12-11T23:55:46.178Z,2.00
2022-12-11T23:58:14.084Z,1.70
